createdAt,value
2022-10-14T00:00:37.907Z,2.80
2022-10-14T00:03:05.777Z,2.40
2022-10-14T00:05:33.752Z,2.60
2022-10-14T00:08:01.589Z,2.63
2022-10-14T00:10:29.445Z,2.90
2022-10-14T00:12:58.829Z,2.80
2022-10-14T00:15:26.745Z,2.57
2022-10-14T00:17:54.658Z,2.33
2022-10-14T00:20:22.581Z,2.90
2022-10-14T00:22:50.463Z,2.60
2022-10-14T00:25:18.979Z,2.60
2022-10-14T00:27:46.852Z,2.87
2022-10-14T00:30:16.301Z,3.03
2022-10-14T00:32:44.221Z,3.00
2022-10-14T00:35:12.161Z,2.90
2022-10-14T00:37:40.054Z,3.23
2022-10-14T00:40:08.592Z,2.50
2022-10-14T00:42:36.811Z,2.70
2022-10-14T00:45:14.062Z,2.40
2022-10-14T00:47:45.201Z,3.23
2022-10-14T00:50:15.455Z,3.10
2022-10-14T00:52:44.283Z,3.20
2022-10-14T00:55:17.244Z,3.30
2022-10-14T00:57:45.580Z,3.20
2022-10-14T01:00:16.127Z,3.07
2022-10-14T01:02:45.650Z,3.27
2022-10-14T01:05:16.478Z,3.03
2022-10-14T01:07:51.427Z,3.43
2022-10-14T01:10:27.799Z,3.17
2022-10-14T01:13:09.347Z,3.07
2022-10-14T01:15:45.327Z,3.10
2022-10-14T01:18:26.151Z,3.30
2022-10-14T01:21:10.858Z,3.40
2022-10-14T01:23:47.737Z,3.70
2022-10-14T01:26:35.381Z,3.10
2022-10-14T01:29:17.780Z,3.40
2022-10-14T01:31:50.459Z,4.03
2022-10-14T01:34:26.250Z,3.53
2022-10-14T01:37:00.157Z,3.33
2022-10-14T01:39:33.098Z,2.80
2022-10-14T01:42:06.718Z,3.60
2022-10-14T01:44:36.619Z,3.17
2022-10-14T01:47:07.903Z,3.60
2022-10-14T01:49:38.836Z,2.90
2022-10-14T01:52:10.072Z,3.50
2022-10-14T01:54:42.537Z,3.60
2022-10-14T01:57:15.351Z,3.50
2022-10-14T01:59:45.327Z,3.10
2022-10-14T02:02:15.087Z,3.40
2022-10-14T02:04:42.949Z,3.27
2022-10-14T02:07:20.907Z,3.17
2022-10-14T02:09:56.111Z,3.40
2022-10-14T02:12:35.284Z,3.77
2022-10-14T02:15:14.047Z,3.50
2022-10-14T02:17:52.046Z,3.57
2022-10-14T02:20:25.174Z,3.37
2022-10-14T02:22:59.449Z,3.33
2022-10-14T02:25:32.276Z,3.50
2022-10-14T02:28:01.903Z,3.40
2022-10-14T02:30:34.259Z,3.47
2022-10-14T02:33:04.788Z,3.60
2022-10-14T02:35:34.789Z,3.63
2022-10-14T02:38:03.489Z,3.70
2022-10-14T02:40:37.276Z,3.70
2022-10-14T02:43:07.970Z,3.57
2022-10-14T02:45:36.006Z,3.77
2022-10-14T02:48:06.126Z,3.80
2022-10-14T02:50:34.499Z,3.33
2022-10-14T02:53:02.388Z,4.10
2022-10-14T02:55:30.367Z,4.53
2022-10-14T02:57:58.212Z,5.00
2022-10-14T03:00:26.010Z,4.43
2022-10-14T03:02:53.801Z,5.20
2022-10-14T03:05:23.047Z,4.83
2022-10-14T03:07:50.889Z,6.13
2022-10-14T03:10:19.282Z,5.60
2022-10-14T03:12:47.091Z,5.30
2022-10-14T03:15:15.012Z,5.30
2022-10-14T03:17:42.915Z,4.63
2022-10-14T03:20:11.869Z,5.37
2022-10-14T03:22:41.051Z,5.57
2022-10-14T03:25:09.822Z,4.70
2022-10-14T03:27:37.641Z,4.80
2022-10-14T03:30:06.386Z,5.30
2022-10-14T03:32:34.296Z,5.70
2022-10-14T03:35:02.361Z,5.27
2022-10-14T03:37:30.213Z,5.27
2022-10-14T03:39:59.479Z,5.67
2022-10-14T03:42:27.343Z,6.57
2022-10-14T03:44:55.213Z,5.07
2022-10-14T03:47:23.156Z,4.33
2022-10-14T03:49:51.024Z,5.63
2022-10-14T03:52:19.059Z,5.30
2022-10-14T03:54:47.125Z,5.17
2022-10-14T03:57:16.354Z,5.63
2022-10-14T03:59:44.201Z,5.13
2022-10-14T04:02:12.141Z,5.07
2022-10-14T04:04:40.009Z,5.23
2022-10-14T04:07:07.877Z,4.80
2022-10-14T04:09:35.743Z,4.93
2022-10-14T04:12:03.633Z,4.90
2022-10-14T04:14:32.965Z,5.13
2022-10-14T04:17:00.859Z,4.87
2022-10-14T04:19:28.723Z,4.90
2022-10-14T04:21:56.558Z,4.90
2022-10-14T04:24:24.535Z,5.50
2022-10-14T04:26:52.815Z,5.30
2022-10-14T04:29:20.671Z,4.63
2022-10-14T04:31:50.381Z,5.00
2022-10-14T04:34:18.216Z,5.10
2022-10-14T04:36:46.035Z,4.73
2022-10-14T04:39:15.591Z,5.23
2022-10-14T04:41:43.512Z,4.87
2022-10-14T04:44:11.464Z,5.00
2022-10-14T04:46:39.448Z,4.17
2022-10-14T04:49:09.687Z,4.70
2022-10-14T04:51:37.503Z,5.03
2022-10-14T04:54:05.895Z,5.03
2022-10-14T04:56:33.778Z,5.10
2022-10-14T04:59:01.817Z,4.70
2022-10-14T05:01:33.766Z,4.50
2022-10-14T05:04:02.094Z,4.60
2022-10-14T05:06:31.387Z,4.77
2022-10-14T05:08:59.337Z,4.37
2022-10-14T05:11:28.433Z,4.10
2022-10-14T05:13:56.243Z,4.57
2022-10-14T05:16:24.092Z,3.83
2022-10-14T05:18:52.723Z,3.80
2022-10-14T05:21:20.623Z,4.20
2022-10-14T05:23:49.958Z,4.27
2022-10-14T05:26:17.791Z,4.30
2022-10-14T05:28:45.917Z,4.40
2022-10-14T05:31:13.818Z,5.03
2022-10-14T05:33:41.683Z,4.20
2022-10-14T05:36:10.193Z,3.93
2022-10-14T05:38:38.078Z,4.40
2022-10-14T05:41:07.483Z,4.03
2022-10-14T05:43:35.362Z,4.20
2022-10-14T05:46:03.444Z,4.10
2022-10-14T05:48:32.255Z,3.63
2022-10-14T05:51:02.549Z,4.10
2022-10-14T05:53:30.734Z,4.20
2022-10-14T05:56:03.036Z,3.77
2022-10-14T05:58:32.360Z,4.13
2022-10-14T06:01:01.511Z,4.37
2022-10-14T06:03:29.671Z,4.13
2022-10-14T06:05:57.934Z,3.90
2022-10-14T06:08:26.517Z,4.10
2022-10-14T06:10:54.762Z,4.60
2022-10-14T06:13:23.538Z,3.80
2022-10-14T06:15:52.768Z,3.63
2022-10-14T06:18:20.627Z,4.37
2022-10-14T06:20:53.154Z,4.43
2022-10-14T06:23:20.974Z,4.73
2022-10-14T06:25:48.817Z,5.47
2022-10-14T06:28:17.825Z,6.67
2022-10-14T06:30:52.087Z,6.80
2022-10-14T06:33:20.730Z,8.00
2022-10-14T06:35:48.911Z,8.33
2022-10-14T06:38:17.074Z,8.80
2022-10-14T06:40:44.945Z,8.80
2022-10-14T06:43:12.813Z,8.73
2022-10-14T06:45:40.624Z,9.87
2022-10-14T06:48:10.159Z,8.57
2022-10-14T06:50:39.276Z,9.17
2022-10-14T06:53:07.314Z,9.73
2022-10-14T06:55:35.368Z,10.67
2022-10-14T06:58:03.236Z,8.90
2022-10-14T07:00:31.101Z,9.80
2022-10-14T07:02:59.412Z,10.63
2022-10-14T07:05:28.779Z,9.23
2022-10-14T07:07:58.324Z,9.77
2022-10-14T07:10:26.235Z,9.60
2022-10-14T07:12:55.662Z,9.47
2022-10-14T07:15:23.623Z,9.77
2022-10-14T07:17:51.450Z,9.40
2022-10-14T07:20:19.468Z,8.70
2022-10-14T07:22:48.760Z,9.50
2022-10-14T07:25:16.784Z,9.13
2022-10-14T07:27:44.619Z,8.87
2022-10-14T07:30:15.297Z,10.57
2022-10-14T07:32:45.621Z,9.00
2022-10-14T07:35:13.573Z,8.67
2022-10-14T07:37:41.491Z,9.23
2022-10-14T07:40:11.971Z,9.20
2022-10-14T07:42:39.842Z,9.00
2022-10-14T07:45:09.188Z,8.53
2022-10-14T07:47:37.093Z,8.17
2022-10-14T07:50:05.490Z,8.07
2022-10-14T07:52:33.604Z,8.40
2022-10-14T07:55:01.477Z,9.27
2022-10-14T07:57:30.797Z,8.47
2022-10-14T07:59:58.720Z,9.63
2022-10-14T08:02:26.659Z,9.13
2022-10-14T08:05:04.057Z,9.03
2022-10-14T08:07:41.299Z,8.73
2022-10-14T08:10:09.222Z,8.83
2022-10-14T08:12:38.459Z,7.77
2022-10-14T08:15:07.207Z,8.80
2022-10-14T08:17:35.042Z,8.57
2022-10-14T08:20:02.935Z,8.40
2022-10-14T08:22:30.749Z,8.83
2022-10-14T08:24:58.583Z,8.33
2022-10-14T08:27:27.034Z,8.37
2022-10-14T08:29:56.927Z,7.77
2022-10-14T08:32:25.001Z,7.40
2022-10-14T08:34:53.208Z,7.90
2022-10-14T08:37:21.053Z,7.97
2022-10-14T08:39:48.870Z,7.40
2022-10-14T08:42:36.784Z,8.20
2022-10-14T08:45:11.512Z,7.93
2022-10-14T08:47:43.418Z,7.87
2022-10-14T08:50:23.281Z,7.10
2022-10-14T08:52:55.267Z,7.10
2022-10-14T08:55:31.293Z,7.30
2022-10-14T08:58:06.278Z,8.03
2022-10-14T09:00:38.374Z,7.43
2022-10-14T09:03:16.457Z,7.10
2022-10-14T09:05:44.620Z,7.57
2022-10-14T09:08:16.815Z,7.43
2022-10-14T09:10:45.391Z,7.07
2022-10-14T09:13:18.739Z,7.67
2022-10-14T09:15:51.413Z,6.63
2022-10-14T09:18:28.938Z,6.60
2022-10-14T09:20:58.074Z,7.23
2022-10-14T09:23:29.021Z,7.63
2022-10-14T09:25:58.857Z,7.30
2022-10-14T09:28:36.267Z,6.10
2022-10-14T09:31:06.834Z,7.53
2022-10-14T09:33:42.174Z,7.10
2022-10-14T09:36:16.759Z,6.43
2022-10-14T09:38:45.395Z,6.83
2022-10-14T09:41:16.922Z,7.50
2022-10-14T09:44:19.837Z,7.10
2022-10-14T09:46:53.269Z,6.90
2022-10-14T09:49:23.956Z,6.97
2022-10-14T09:51:53.060Z,7.33
2022-10-14T09:54:26.450Z,7.23
2022-10-14T09:57:05.122Z,6.80
2022-10-14T09:59:33.595Z,7.33
2022-10-14T10:02:05.505Z,7.27
2022-10-14T10:04:37.313Z,6.90
2022-10-14T10:07:07.162Z,7.13
2022-10-14T10:09:35.682Z,6.50
2022-10-14T10:12:24.407Z,7.07
2022-10-14T10:14:58.615Z,6.77
2022-10-14T10:17:28.798Z,8.40
2022-10-14T10:20:10.729Z,6.50
2022-10-14T10:22:39.309Z,7.07
2022-10-14T10:25:28.787Z,6.90
2022-10-14T10:28:00.001Z,7.37
2022-10-14T10:30:32.280Z,6.90
2022-10-14T10:33:18.880Z,8.00
2022-10-14T10:36:04.374Z,6.40
2022-10-14T10:38:36.592Z,6.70
2022-10-14T10:41:17.115Z,5.87
2022-10-14T10:44:07.048Z,6.57
2022-10-14T10:46:55.092Z,6.20
2022-10-14T10:49:40.651Z,6.03
2022-10-14T10:52:21.198Z,5.90
2022-10-14T10:54:59.475Z,5.20
2022-10-14T10:57:43.261Z,6.50
2022-10-14T11:00:16.501Z,5.87
2022-10-14T11:03:11.774Z,6.30
2022-10-14T11:05:58.479Z,6.63
2022-10-14T11:09:03.855Z,6.60
2022-10-14T11:11:52.616Z,6.40
2022-10-14T11:14:58.759Z,5.23
2022-10-14T11:17:35.667Z,6.87
2022-10-14T11:20:18.167Z,6.00
2022-10-14T11:23:00.520Z,6.07
2022-10-14T11:25:49.232Z,6.73
2022-10-14T11:28:23.149Z,6.57
2022-10-14T11:30:57.851Z,6.13
2022-10-14T11:33:46.135Z,6.03
2022-10-14T11:36:27.466Z,7.07
2022-10-14T11:39:20.291Z,5.20
2022-10-14T11:42:05.140Z,6.67
2022-10-14T11:44:38.023Z,5.00
2022-10-14T11:47:12.522Z,4.67
2022-10-14T11:49:48.150Z,5.00
2022-10-14T11:52:23.211Z,4.90
2022-10-14T11:55:09.826Z,5.10
2022-10-14T11:57:45.563Z,5.60
2022-10-14T12:00:34.640Z,5.50
2022-10-14T12:03:12.386Z,4.47
2022-10-14T12:05:44.707Z,4.77
2022-10-14T12:08:22.240Z,4.10
2022-10-14T12:10:56.125Z,4.50
2022-10-14T12:13:33.395Z,4.80
2022-10-14T12:16:02.226Z,3.67
2022-10-14T12:18:32.972Z,3.70
2022-10-14T12:21:19.401Z,3.90
2022-10-14T12:23:51.023Z,3.90
2022-10-14T12:26:40.722Z,4.03
2022-10-14T12:29:14.331Z,3.63
2022-10-14T12:31:42.266Z,3.30
2022-10-14T12:34:25.473Z,2.50
2022-10-14T12:36:53.330Z,1.60
2022-10-14T12:39:43.064Z,1.87
2022-10-14T12:42:14.971Z,2.23
2022-10-14T12:44:48.106Z,1.83
2022-10-14T12:47:22.729Z,1.87
2022-10-14T12:49:53.400Z,1.80
2022-10-14T12:52:24.863Z,1.90
2022-10-14T12:54:53.709Z,1.90
2022-10-14T12:57:29.746Z,1.83
2022-10-14T13:00:01.090Z,2.00
2022-10-14T13:02:33.568Z,1.60
2022-10-14T13:05:03.977Z,1.40
2022-10-14T13:07:41.150Z,1.40
2022-10-14T13:10:46.786Z,1.50
2022-10-14T13:13:53.503Z,1.70
2022-10-14T13:16:58.263Z,1.60
2022-10-14T13:19:44.689Z,1.60
2022-10-14T13:22:43.792Z,1.90
2022-10-14T13:25:20.254Z,1.70
2022-10-14T13:27:56.364Z,1.70
2022-10-14T13:30:33.984Z,1.90
2022-10-14T13:33:13.374Z,1.77
2022-10-14T13:35:51.120Z,1.90
2022-10-14T13:38:21.243Z,1.60
2022-10-14T13:40:51.411Z,1.70
2022-10-14T13:43:26.727Z,1.97
2022-10-14T13:45:58.976Z,1.70
2022-10-14T13:48:32.575Z,1.80
2022-10-14T13:51:37.073Z,1.77
2022-10-14T13:54:17.729Z,1.70
2022-10-14T13:56:45.770Z,1.73
2022-10-14T13:59:43.297Z,1.63
2022-10-14T14:02:16.061Z,1.17
2022-10-14T14:04:52.130Z,1.00
2022-10-14T14:07:58.906Z,0.90
2022-10-14T14:10:13.441Z,1.20
2022-10-14T14:12:44.388Z,1.07
2022-10-14T14:15:20.858Z,1.40
2022-10-14T14:17:48.738Z,1.10
2022-10-14T14:20:21.908Z,1.20
2022-10-14T14:22:50.063Z,1.10
2022-10-14T14:26:01.257Z,1.30
2022-10-14T14:28:15.337Z,1.10
2022-10-14T14:30:54.346Z,1.07
2022-10-14T14:33:30.664Z,1.17
2022-10-14T14:36:02.626Z,1.00
2022-10-14T14:38:32.322Z,0.93
2022-10-14T14:41:06.038Z,0.73
2022-10-14T14:43:39.682Z,0.80
2022-10-14T14:46:18.238Z,0.87
2022-10-14T14:48:53.445Z,0.80
2022-10-14T14:51:24.084Z,0.73
2022-10-14T14:53:54.677Z,0.90
2022-10-14T14:56:27.254Z,1.67
2022-10-14T14:58:58.274Z,1.10
2022-10-14T15:01:27.868Z,1.10
2022-10-14T15:04:12.459Z,1.20
2022-10-14T15:06:51.312Z,1.40
2022-10-14T15:09:25.366Z,1.40
2022-10-14T15:11:55.843Z,1.40
2022-10-14T15:14:33.395Z,1.00
2022-10-14T15:17:01.321Z,1.10
2022-10-14T15:19:39.630Z,0.90
2022-10-14T15:22:28.662Z,1.13
2022-10-14T15:25:02.632Z,1.20
2022-10-14T15:27:52.645Z,1.00
2022-10-14T15:30:27.149Z,0.70
2022-10-14T15:32:58.624Z,0.77
2022-10-14T15:35:27.311Z,0.80
2022-10-14T15:37:56.951Z,0.70
2022-10-14T15:40:29.074Z,0.77
2022-10-14T15:42:57.230Z,0.90
2022-10-14T15:45:25.998Z,1.00
2022-10-14T15:50:29.579Z,0.70
2022-10-14T15:52:58.830Z,1.00
2022-10-14T15:55:29.678Z,1.50
2022-10-14T15:57:57.587Z,1.20
2022-10-14T16:00:26.105Z,1.20
2022-10-14T16:02:57.110Z,1.50
2022-10-14T16:05:25.462Z,1.20
2022-10-14T16:07:53.302Z,1.30
2022-10-14T16:10:23.812Z,1.37
2022-10-14T16:12:51.861Z,1.20
2022-10-14T16:15:33.340Z,1.63
2022-10-14T16:18:01.874Z,1.50
2022-10-14T16:20:30.809Z,1.60
2022-10-14T16:22:59.454Z,1.67
2022-10-14T16:25:33.600Z,1.50
2022-10-14T16:28:01.535Z,1.90
2022-10-14T16:30:29.349Z,1.70
2022-10-14T16:32:57.256Z,1.50
2022-10-14T16:35:25.222Z,1.60
2022-10-14T16:37:54.572Z,1.40
2022-10-14T16:40:23.385Z,1.30
2022-10-14T16:42:53.347Z,1.20
2022-10-14T16:45:21.228Z,1.20
2022-10-14T16:47:49.061Z,1.40
2022-10-14T16:50:16.915Z,1.90
2022-10-14T16:53:05.926Z,1.53
2022-10-14T16:55:34.162Z,1.57
2022-10-14T16:58:03.651Z,1.70
2022-10-14T17:00:31.533Z,1.50
2022-10-14T17:02:59.528Z,1.80
2022-10-14T17:05:28.636Z,1.40
2022-10-14T17:07:56.507Z,2.10
2022-10-14T17:10:25.277Z,2.50
2022-10-14T17:12:54.694Z,2.13
2022-10-14T17:15:24.883Z,1.83
2022-10-14T17:17:53.704Z,1.60
2022-10-14T17:20:21.990Z,1.77
2022-10-14T17:22:50.262Z,1.50
2022-10-14T17:25:20.081Z,1.30
2022-10-14T17:27:47.969Z,1.30
2022-10-14T17:30:15.943Z,1.60
2022-10-14T17:32:45.240Z,1.70
2022-10-14T17:35:15.231Z,1.60
2022-10-14T17:37:43.424Z,1.40
2022-10-14T17:40:12.030Z,1.40
2022-10-14T17:42:39.878Z,1.80
2022-10-14T17:45:09.235Z,1.43
2022-10-14T17:47:37.075Z,1.50
2022-10-14T17:50:08.904Z,1.50
2022-10-14T17:52:36.781Z,1.87
2022-10-14T17:55:05.002Z,1.50
2022-10-14T17:57:32.922Z,1.40
2022-10-14T18:00:00.745Z,1.80
2022-10-14T18:02:28.765Z,1.60
2022-10-14T18:04:56.641Z,1.80
2022-10-14T18:07:26.546Z,1.40
2022-10-14T18:09:54.396Z,1.50
2022-10-14T18:12:22.783Z,1.63
2022-10-14T18:14:50.718Z,1.40
2022-10-14T18:17:19.192Z,1.90
2022-10-14T18:19:52.337Z,1.60
2022-10-14T18:22:20.408Z,1.70
2022-10-14T18:24:49.642Z,1.97
2022-10-14T18:27:17.521Z,1.90
2022-10-14T18:29:45.583Z,2.10
2022-10-14T18:32:13.429Z,1.80
2022-10-14T18:34:41.406Z,1.90
2022-10-14T18:37:09.275Z,2.10
2022-10-14T18:39:37.223Z,1.80
2022-10-14T18:42:06.636Z,2.50
2022-10-14T18:44:34.486Z,2.00
2022-10-14T18:47:02.408Z,2.10
2022-10-14T18:49:30.661Z,2.00
2022-10-14T18:51:58.551Z,1.93
2022-10-14T18:54:26.470Z,1.97
2022-10-14T18:56:54.943Z,2.07
2022-10-14T18:59:25.025Z,2.00
2022-10-14T19:01:53.948Z,2.10
2022-10-14T19:04:23.728Z,2.33
2022-10-14T19:06:51.714Z,2.07
2022-10-14T19:09:21.721Z,2.00
2022-10-14T19:11:51.725Z,1.87
2022-10-14T19:14:20.696Z,2.30
2022-10-14T19:16:50.057Z,2.00
2022-10-14T19:19:19.712Z,2.23
2022-10-14T19:21:49.852Z,2.30
2022-10-14T19:24:18.241Z,2.63
2022-10-14T19:26:48.808Z,2.10
2022-10-14T19:29:17.248Z,2.30
2022-10-14T19:31:45.211Z,2.53
2022-10-14T19:34:16.897Z,2.40
2022-10-14T19:36:45.599Z,2.10
2022-10-14T19:39:15.790Z,2.23
2022-10-14T19:41:45.094Z,2.60
2022-10-14T19:44:14.180Z,2.77
2022-10-14T19:46:42.619Z,2.50
2022-10-14T19:49:13.261Z,2.30
2022-10-14T19:51:42.821Z,2.47
2022-10-14T19:54:11.839Z,2.10
2022-10-14T19:56:39.793Z,2.63
2022-10-14T19:59:07.893Z,2.50
2022-10-14T20:01:35.992Z,2.70
2022-10-14T20:04:04.215Z,2.43
2022-10-14T20:06:35.459Z,2.57
2022-10-14T20:09:06.058Z,2.40
2022-10-14T20:11:35.460Z,2.30
2022-10-14T20:14:03.346Z,2.67
2022-10-14T20:16:31.265Z,2.63
2022-10-14T20:18:59.320Z,2.40
2022-10-14T20:21:30.013Z,2.80
2022-10-14T20:23:59.553Z,2.50
2022-10-14T20:26:28.874Z,2.40
2022-10-14T20:28:56.913Z,2.30
2022-10-14T20:31:26.204Z,2.43
2022-10-14T20:33:56.288Z,2.40
2022-10-14T20:36:24.787Z,2.57
2022-10-14T20:38:52.952Z,2.47
2022-10-14T20:41:23.546Z,2.30
2022-10-14T20:43:53.964Z,2.60
2022-10-14T20:46:23.409Z,2.70
2022-10-14T20:48:55.167Z,2.80
2022-10-14T20:51:23.720Z,2.47
2022-10-14T20:53:58.511Z,2.53
2022-10-14T20:56:31.263Z,2.70
2022-10-14T20:59:02.129Z,2.57
2022-10-14T21:01:30.770Z,2.90
2022-10-14T21:04:01.643Z,2.70
2022-10-14T21:06:30.168Z,2.57
2022-10-14T21:08:59.053Z,2.57
2022-10-14T21:11:27.975Z,2.27
2022-10-14T21:13:58.149Z,2.60
2022-10-14T21:16:30.362Z,3.10
2022-10-14T21:18:59.805Z,3.00
2022-10-14T21:21:29.641Z,3.00
2022-10-14T21:23:58.093Z,2.93
2022-10-14T21:26:26.351Z,3.00
2022-10-14T21:28:54.249Z,2.90
2022-10-14T21:31:22.295Z,2.90
2022-10-14T21:34:04.156Z,3.00
2022-10-14T21:36:33.263Z,2.90
2022-10-14T21:39:01.996Z,3.00
2022-10-14T21:41:29.878Z,3.20
2022-10-14T21:43:59.330Z,2.60
2022-10-14T21:46:27.668Z,2.77
2022-10-14T21:48:58.236Z,2.60
2022-10-14T21:51:27.857Z,2.10
2022-10-14T21:53:56.302Z,2.20
2022-10-14T21:56:25.042Z,2.10
2022-10-14T21:58:53.134Z,2.10
2022-10-14T22:01:22.718Z,2.43
2022-10-14T22:03:54.406Z,2.47
2022-10-14T22:06:23.847Z,2.30
2022-10-14T22:08:54.718Z,2.50
2022-10-14T22:11:24.868Z,2.30
2022-10-14T22:13:54.626Z,2.40
2022-10-14T22:16:23.327Z,2.10
2022-10-14T22:18:53.752Z,2.40
2022-10-14T22:21:25.427Z,2.20
2022-10-14T22:23:53.728Z,2.70
2022-10-14T22:26:23.346Z,2.90
2022-10-14T22:28:51.873Z,2.60
2022-10-14T22:31:22.148Z,2.50
2022-10-14T22:33:50.475Z,2.90
2022-10-14T22:36:23.528Z,2.60
2022-10-14T22:38:54.515Z,2.90
2022-10-14T22:41:23.676Z,3.20
2022-10-14T22:43:52.611Z,2.83
2022-10-14T22:46:22.574Z,2.90
2022-10-14T22:48:55.987Z,2.83
2022-10-14T22:53:56.272Z,3.40
2022-10-14T22:56:26.746Z,3.50
2022-10-14T22:58:55.114Z,3.33
2022-10-14T23:01:23.639Z,3.50
2022-10-14T23:03:51.721Z,3.50
2022-10-14T23:06:19.620Z,3.03
2022-10-14T23:08:47.444Z,3.53
2022-10-14T23:11:18.642Z,4.13
2022-10-14T23:13:46.465Z,2.93
2022-10-14T23:16:17.181Z,3.20
2022-10-14T23:18:46.208Z,3.10
2022-10-14T23:21:19.470Z,3.30
2022-10-14T23:23:48.681Z,3.40
2022-10-14T23:26:21.309Z,3.07
2022-10-14T23:28:50.178Z,2.90
2022-10-14T23:31:20.864Z,3.17
2022-10-14T23:33:49.122Z,2.80
2022-10-14T23:36:17.387Z,3.00
2022-10-14T23:38:45.614Z,3.30
2022-10-14T23:41:14.800Z,3.40
2022-10-14T23:43:44.088Z,4.90
2022-10-14T23:46:12.489Z,5.13
2022-10-14T23:48:40.680Z,4.93
2022-10-14T23:51:09.021Z,4.50
2022-10-14T23:53:37.058Z,4.30
2022-10-14T23:56:05.805Z,5.10
2022-10-14T23:58:34.375Z,6.40
